Terminal Aerodrome Forecast
Issued by NWS

Home | Current Version | Previous Version | Graphics & Text | Print | Product List | Glossary On
Versions: 1 2 3 4 5 6 7 8 9 10 11 12 13 14 15 16 17 18 19 20 21 22 23 24 25
000
FTUS42 KMHX 301725
TAFOAJ
TAF
KOAJ 301725Z 3018/0118 09007KT P6SM BKN035
      TEMPO 3018/3020 BKN025
     FM010600 VRB04KT P6SM BKN007
     FM011200 15004KT P6SM BKN015
     FM011400 19010KT P6SM SCT040 BKN120
      AMD LTD TO CLD VIS AND WIND=

USA.gov is the U.S. government's official web portal to all federal, state and local government web resources and services.